Terminal Aerodrome Forecast
Issued by NWS Birmingham, AL

Home | Current Version | Previous Version | Text Only | Print | Product List | Glossary On
Versions: 1 2 3 4 5 6 7 8 9 10 11 12 13 14 15 16 17 18 19 20
000
FTUS44 KBMX 051500 AAA
TAFBHM
TAF AMD
KBHM 051512Z 0515/0612 01012KT 4SM -RAPL BR SCT007 OVC012
     FM051700 35010G20KT 4SM -FZRA BR SCT007 OVC012
     FM052000 35012G20KT P6SM OVC015
     FM060200 36012KT P6SM OVC025=

USA.gov is the U.S. government's official web portal to all federal, state and local government web resources and services.